Time;durP1;ratioP1;P1;durP2;ratioP2;P2;SDS_P1;SDS_P2;PMS_P1;PMS_P2;Temp;Humidity;BMP_temperature;BMP_pressure;BME280_temperature;BME280_humidity;BME280_pressure;Samples;Min_cycle;Max_cycle;Signal;HPM_P1;HPM_P2
2022/09/15 00:01:28;;;;;;;3.57;1.20;;;17.00;99.90;;;;;;5050704;28;20476;-75
2022/09/15 00:03:54;;;;;;;2.30;1.13;;;17.00;99.90;;;;;;5051384;28;20428;-74
2022/09/15 00:06:20;;;;;;;2.33;0.80;;;17.00;99.90;;;;;;5055075;28;20237;-75
2022/09/15 00:08:45;;;;;;;7.73;1.23;;;17.00;99.90;;;;;;5056066;28;20186;-75
2022/09/15 00:11:27;;;;;;;1.70;1.10;;;16.90;99.90;;;;;;5051171;28;20221;-75
2022/09/15 00:13:53;;;;;;;1.30;0.70;;;16.90;99.90;;;;;;5032688;28;20193;-75
2022/09/15 00:16:21;;;;;;;8.30;1.17;;;17.00;99.90;;;;;;5050080;28;20442;-73
2022/09/15 00:18:47;;;;;;;1.73;0.80;;;17.00;99.90;;;;;;5051100;28;20900;-75
2022/09/15 00:21:25;;;;;;;2.50;1.13;;;17.00;99.90;;;;;;5050755;28;20602;-73
2022/09/15 00:23:51;;;;;;;2.03;1.00;;;17.00;99.90;;;;;;5050731;28;20945;-75
2022/09/15 00:26:20;;;;;;;2.60;0.80;;;17.00;99.90;;;;;;5051037;28;20455;-75
2022/09/15 00:28:46;;;;;;;2.37;1.17;;;17.00;99.90;;;;;;5050967;28;20194;-75
2022/09/15 00:31:15;;;;;;;1.57;0.80;;;17.00;99.90;;;;;;5050672;28;20423;-75
2022/09/15 00:33:40;;;;;;;4.60;0.90;;;17.00;99.90;;;;;;5050892;28;20456;-75
2022/09/15 00:36:09;;;;;;;1.90;0.87;;;17.00;99.90;;;;;;5033078;28;20486;-75
2022/09/15 00:38:36;;;;;;;2.50;1.00;;;17.00;99.90;;;;;;5050898;28;20202;-75
2022/09/15 00:41:03;;;;;;;3.83;1.10;;;17.00;99.90;;;;;;5050471;28;20475;-75
2022/09/15 00:43:47;;;;;;;2.50;1.07;;;17.00;99.90;;;;;;5050569;28;20428;-75
2022/09/15 00:46:14;;;;;;;2.27;1.00;;;17.00;99.90;;;;;;5050644;28;20412;-75
2022/09/15 00:48:45;;;;;;;2.03;1.30;;;17.00;99.90;;;;;;5032726;28;20427;-75
2022/09/15 00:51:15;;;;;;;2.63;0.93;;;17.00;99.90;;;;;;5050367;28;20431;-75
2022/09/15 00:53:42;;;;;;;2.83;1.00;;;17.00;99.90;;;;;;5032827;28;20514;-75
2022/09/15 00:56:11;;;;;;;7.13;1.37;;;17.00;99.90;;;;;;5050628;28;20939;-75
2022/09/15 00:58:45;;;;;;;1.97;0.97;;;17.00;99.90;;;;;;5032958;28;20475;-73
2022/09/15 01:01:12;;;;;;;3.20;1.40;;;17.00;99.90;;;;;;5050099;28;20495;-75
2022/09/15 01:03:38;;;;;;;2.03;0.80;;;17.00;99.90;;;;;;5050664;28;20444;-75
2022/09/15 01:06:12;;;;;;;1.30;0.63;;;17.00;99.90;;;;;;5032632;28;20521;-75
2022/09/15 01:08:52;;;;;;;1.87;1.00;;;17.00;99.90;;;;;;5050711;28;20189;-75
2022/09/15 01:11:17;;;;;;;2.60;1.17;;;17.00;99.90;;;;;;5050304;28;20446;-75
2022/09/15 01:13:43;;;;;;;3.23;1.20;;;16.90;99.90;;;;;;5050056;28;20935;-75
2022/09/15 01:16:25;;;;;;;5.60;1.00;;;16.90;99.90;;;;;;5050494;28;20196;-75
2022/09/15 01:19:31;;;;;;;2.13;0.80;;;16.90;99.90;;;;;;5050484;28;20188;-74
2022/09/15 01:22:38;;;;;;;2.10;0.73;;;16.90;99.90;;;;;;5032262;28;20479;-73
2022/09/15 01:25:19;;;;;;;5.23;1.37;;;16.90;99.90;;;;;;5049494;28;20430;-75
2022/09/15 01:28:18;;;;;;;2.33;0.90;;;16.90;99.90;;;;;;5038116;28;20946;-75
2022/09/15 01:31:01;;;;;;;2.53;1.20;;;16.80;99.90;;;;;;5050268;28;20551;-75
2022/09/15 01:34:04;;;;;;;2.40;0.87;;;16.80;99.90;;;;;;5050300;28;20518;-75
2022/09/15 01:36:43;;;;;;;2.00;1.03;;;16.80;99.90;;;;;;5046268;28;20455;-76
2022/09/15 01:39:17;;;;;;;3.40;0.83;;;16.80;99.90;;;;;;5050675;28;20455;-76
2022/09/15 01:41:59;;;;;;;3.33;0.80;;;16.80;99.90;;;;;;5032077;28;20464;-76
2022/09/15 01:44:29;;;;;;;7.73;0.90;;;16.80;99.90;;;;;;5050470;28;20484;-75
2022/09/15 01:46:59;;;;;;;4.07;1.07;;;16.80;99.90;;;;;;5037237;28;20450;-75
2022/09/15 01:49:30;;;;;;;1.93;0.83;;;16.80;99.90;;;;;;5050248;28;21013;-76
2022/09/15 01:51:55;;;;;;;2.20;0.90;;;16.80;99.90;;;;;;5050352;28;20451;-75
2022/09/15 01:54:44;;;;;;;1.57;0.70;;;16.80;99.90;;;;;;5050466;28;20529;-75
2022/09/15 01:57:10;;;;;;;3.50;0.80;;;16.70;99.90;;;;;;5032311;28;20227;-76
2022/09/15 01:59:36;;;;;;;5.80;1.00;;;16.70;99.90;;;;;;5035423;28;20440;-75
2022/09/15 02:02:13;;;;;;;1.77;0.80;;;16.70;99.90;;;;;;5053606;28;20692;-76
2022/09/15 02:05:06;;;;;;;4.17;0.93;;;16.70;99.90;;;;;;5057682;28;20276;-74
2022/09/15 02:07:55;;;;;;;4.60;1.30;;;16.70;99.90;;;;;;5032622;28;20472;-76
2022/09/15 02:10:31;;;;;;;7.63;1.13;;;16.70;99.90;;;;;;5059204;28;20485;-76
2022/09/15 02:13:22;;;;;;;2.03;0.87;;;16.70;99.90;;;;;;5053916;28;20423;-75
2022/09/15 02:15:55;;;;;;;1.40;0.80;;;16.70;99.90;;;;;;5052749;28;20431;-75
2022/09/15 02:18:34;;;;;;;1.90;0.80;;;16.70;99.90;;;;;;5053210;28;20475;-75
2022/09/15 02:21:09;;;;;;;1.70;0.73;;;16.70;99.90;;;;;;5053426;28;20538;-74
2022/09/15 02:23:42;;;;;;;2.60;0.90;;;16.70;99.90;;;;;;5053333;28;20412;-75
2022/09/15 02:26:13;;;;;;;1.50;0.80;;;16.70;99.90;;;;;;5053770;28;20420;-75
2022/09/15 02:28:42;;;;;;;1.50;0.80;;;16.70;99.90;;;;;;5053422;28;20458;-75
2022/09/15 02:31:12;;;;;;;1.50;0.80;;;16.70;99.90;;;;;;5053260;28;20439;-76
2022/09/15 02:33:43;;;;;;;3.00;0.60;;;16.70;99.90;;;;;;5053231;28;20424;-75
2022/09/15 02:36:12;;;;;;;2.50;0.97;;;16.70;99.90;;;;;;5053037;28;20437;-77
2022/09/15 02:38:42;;;;;;;1.70;1.00;;;16.70;99.90;;;;;;5053424;28;20424;-76
2022/09/15 02:41:08;;;;;;;2.90;0.90;;;16.60;99.90;;;;;;5052858;28;20474;-76
2022/09/15 02:43:42;;;;;;;2.80;0.90;;;16.60;99.90;;;;;;5053372;28;20420;-76
2022/09/15 02:46:08;;;;;;;1.50;0.80;;;16.50;99.90;;;;;;5053064;28;20688;-76
2022/09/15 02:48:34;;;;;;;5.77;1.00;;;16.40;99.90;;;;;;5052884;28;20436;-75
2022/09/15 02:51:00;;;;;;;2.13;0.70;;;16.30;99.90;;;;;;5034699;28;20193;-73
2022/09/15 02:53:26;;;;;;;1.53;0.87;;;16.30;99.90;;;;;;5052626;28;20443;-76
2022/09/15 02:55:51;;;;;;;1.57;0.67;;;16.20;99.90;;;;;;5053264;28;20189;-76
2022/09/15 02:58:17;;;;;;;1.80;1.07;;;16.20;99.90;;;;;;5036206;28;20237;-77
2022/09/15 03:00:44;;;;;;;1.77;0.83;;;16.20;99.90;;;;;;5034956;28;20213;-76
2022/09/15 03:03:09;;;;;;;9.90;1.13;;;16.10;99.90;;;;;;5052725;28;20608;-78
2022/09/15 03:05:35;;;;;;;2.03;1.10;;;16.10;99.90;;;;;;5052473;28;20467;-76
2022/09/15 03:08:01;;;;;;;1.50;0.67;;;16.10;99.90;;;;;;5052771;28;20220;-73
2022/09/15 03:10:27;;;;;;;2.03;0.80;;;16.10;99.90;;;;;;5033566;28;20220;-76
2022/09/15 03:12:54;;;;;;;3.10;0.80;;;16.10;99.90;;;;;;5052302;28;20190;-76
2022/09/15 03:15:22;;;;;;;1.43;0.67;;;16.10;99.90;;;;;;5052178;28;20981;-76
2022/09/15 03:17:48;;;;;;;4.90;0.90;;;16.10;99.90;;;;;;5052313;28;20494;-76
2022/09/15 03:20:20;;;;;;;3.30;1.00;;;16.10;99.90;;;;;;5052269;28;21176;-76
2022/09/15 03:22:47;;;;;;;5.30;1.10;;;16.10;99.90;;;;;;5051869;28;20935;-76
2022/09/15 03:25:12;;;;;;;3.20;0.90;;;16.10;99.90;;;;;;5034304;28;20428;-76
2022/09/15 03:27:38;;;;;;;10.13;1.00;;;16.10;99.90;;;;;;5034412;28;20520;-76
2022/09/15 03:30:06;;;;;;;2.83;0.80;;;16.00;99.90;;;;;;5052060;28;20189;-76
2022/09/15 03:32:32;;;;;;;2.30;0.93;;;16.00;99.90;;;;;;5052193;28;20609;-76
2022/09/15 03:34:58;;;;;;;2.03;0.87;;;16.00;99.90;;;;;;5052027;28;20428;-76
2022/09/15 03:37:23;;;;;;;1.90;0.87;;;16.10;99.90;;;;;;5052293;28;20437;-75
2022/09/15 03:39:49;;;;;;;1.90;0.90;;;16.10;99.90;;;;;;5051754;28;20415;-77
2022/09/15 03:42:15;;;;;;;2.07;0.67;;;16.00;99.90;;;;;;5051638;28;20186;-75
2022/09/15 03:44:40;;;;;;;1.90;0.90;;;16.00;99.90;;;;;;5051421;28;20181;-76
2022/09/15 03:47:06;;;;;;;2.03;0.83;;;16.00;99.90;;;;;;5051949;28;20201;-76
2022/09/15 03:49:32;;;;;;;3.03;1.07;;;16.00;99.90;;;;;;5052034;28;20189;-77
2022/09/15 03:51:57;;;;;;;2.57;1.33;;;16.00;99.90;;;;;;5051528;28;20198;-75
2022/09/15 03:54:24;;;;;;;2.33;0.80;;;16.00;99.90;;;;;;5051726;28;20244;-75
2022/09/15 03:56:50;;;;;;;1.70;0.73;;;16.00;99.90;;;;;;5051874;28;20201;-75
2022/09/15 03:59:17;;;;;;;2.90;0.90;;;16.00;99.90;;;;;;5038199;28;20467;-76
2022/09/15 04:01:44;;;;;;;2.10;0.83;;;16.00;99.90;;;;;;5051440;28;21003;-75
2022/09/15 04:04:10;;;;;;;2.10;0.73;;;16.00;99.90;;;;;;5051609;28;20964;-75
2022/09/15 04:06:37;;;;;;;2.17;0.90;;;16.00;99.90;;;;;;5031669;28;20460;-78
2022/09/15 04:09:02;;;;;;;1.87;0.73;;;16.00;99.90;;;;;;5058247;28;20498;-77
2022/09/15 04:11:28;;;;;;;4.93;1.00;;;16.00;99.90;;;;;;5053342;28;20519;-77
2022/09/15 04:13:54;;;;;;;1.67;0.80;;;15.90;99.90;;;;;;5051159;28;20181;-76
2022/09/15 04:16:22;;;;;;;2.27;0.70;;;15.90;99.90;;;;;;5074579;28;20413;-80
2022/09/15 04:18:49;;;;;;;1.57;0.70;;;15.90;99.90;;;;;;5078235;28;20173;-79
2022/09/15 04:21:18;;;;;;;2.13;0.63;;;15.90;99.90;;;;;;5078070;28;20490;-79
2022/09/15 04:23:45;;;;;;;1.50;0.80;;;15.90;99.90;;;;;;5078860;28;20413;-80
2022/09/15 04:26:26;;;;;;;4.43;0.80;;;15.90;99.90;;;;;;5078673;28;20435;-78
2022/09/15 04:28:52;;;;;;;1.87;0.70;;;15.90;99.90;;;;;;5074265;28;20432;-75
2022/09/15 04:31:18;;;;;;;1.60;0.97;;;15.90;99.90;;;;;;5040751;28;20433;-76
2022/09/15 04:33:44;;;;;;;2.00;1.00;;;15.90;99.90;;;;;;5055246;28;20184;-76
2022/09/15 04:36:13;;;;;;;9.33;0.80;;;15.90;99.90;;;;;;5050934;28;20201;-77
2022/09/15 04:38:39;;;;;;;7.03;1.50;;;15.90;99.90;;;;;;5051212;28;20421;-77
2022/09/15 04:41:05;;;;;;;2.13;1.00;;;15.90;99.90;;;;;;5050646;28;20849;-76
2022/09/15 04:43:32;;;;;;;2.10;0.93;;;15.90;99.90;;;;;;5051441;28;20189;-77
2022/09/15 04:45:57;;;;;;;1.40;0.60;;;15.90;99.90;;;;;;5051304;28;20517;-77
2022/09/15 04:48:24;;;;;;;1.63;0.87;;;15.90;99.90;;;;;;5050752;28;20436;-76
2022/09/15 04:50:49;;;;;;;1.73;0.60;;;16.00;99.90;;;;;;5050826;28;20679;-77
2022/09/15 04:53:16;;;;;;;2.23;0.80;;;16.00;99.90;;;;;;5050478;28;20536;-77
2022/09/15 04:55:41;;;;;;;1.27;0.60;;;16.00;99.90;;;;;;5051641;28;20404;-76
2022/09/15 04:58:08;;;;;;;2.07;1.13;;;16.10;99.90;;;;;;5064230;28;20819;-76
2022/09/15 05:00:42;;;;;;;4.07;1.20;;;16.10;99.90;;;;;;5050929;28;20209;-76
2022/09/15 05:03:09;;;;;;;1.40;0.60;;;16.10;99.90;;;;;;5052416;28;20412;-77
2022/09/15 05:05:35;;;;;;;10.37;0.90;;;16.10;99.90;;;;;;5038448;28;20494;-76
2022/09/15 05:08:00;;;;;;;1.83;1.00;;;16.10;99.90;;;;;;5050832;28;20448;-76
2022/09/15 05:10:26;;;;;;;1.60;0.73;;;16.10;99.90;;;;;;5050880;28;20771;-74
2022/09/15 05:12:53;;;;;;;2.30;0.80;;;16.10;99.90;;;;;;5050186;28;20208;-76
2022/09/15 05:15:18;;;;;;;1.83;0.93;;;16.20;99.90;;;;;;5050410;28;20220;-76
2022/09/15 05:17:44;;;;;;;2.13;1.00;;;16.10;99.90;;;;;;5050739;28;20487;-76
2022/09/15 05:20:10;;;;;;;2.83;1.20;;;16.00;99.90;;;;;;5051191;28;20217;-76
2022/09/15 05:22:35;;;;;;;2.43;0.87;;;15.90;99.90;;;;;;5050679;28;20189;-76
2022/09/15 05:25:01;;;;;;;1.83;0.90;;;15.90;99.90;;;;;;5050868;28;20264;-77
2022/09/15 05:27:30;;;;;;;2.30;1.00;;;15.80;99.90;;;;;;5050604;28;20272;-75
2022/09/15 05:29:55;;;;;;;2.60;1.10;;;15.80;99.90;;;;;;5050940;28;20194;-76
2022/09/15 05:32:21;;;;;;;1.53;0.70;;;15.80;99.90;;;;;;5050816;28;20429;-77
2022/09/15 05:34:47;;;;;;;1.77;0.67;;;15.80;99.90;;;;;;5055600;28;20189;-75
2022/09/15 05:37:12;;;;;;;1.40;0.60;;;15.70;99.90;;;;;;5054631;28;20205;-78
2022/09/15 05:39:38;;;;;;;1.80;0.90;;;15.70;99.90;;;;;;5055482;28;20602;-76
2022/09/15 05:42:04;;;;;;;2.37;1.07;;;15.80;99.90;;;;;;5054847;28;20263;-77
2022/09/15 05:44:30;;;;;;;4.97;0.87;;;15.80;99.90;;;;;;5037132;28;20507;-76
2022/09/15 05:46:56;;;;;;;5.07;1.00;;;15.80;99.90;;;;;;5055365;28;20209;-76
2022/09/15 05:49:21;;;;;;;2.50;0.90;;;15.80;99.90;;;;;;5056004;28;20185;-77
2022/09/15 05:51:47;;;;;;;2.17;0.80;;;15.80;99.90;;;;;;5054019;28;20199;-75
2022/09/15 05:54:13;;;;;;;1.40;0.60;;;15.80;99.90;;;;;;5037227;28;20200;-76
2022/09/15 05:56:39;;;;;;;4.80;0.97;;;15.80;99.90;;;;;;5054718;28;20287;-76
2022/09/15 05:59:05;;;;;;;3.00;0.80;;;15.80;99.90;;;;;;5049499;28;20268;-78
2022/09/15 06:01:31;;;;;;;1.97;1.13;;;15.80;99.90;;;;;;5042355;28;21043;-78
2022/09/15 06:03:57;;;;;;;1.43;0.87;;;15.80;99.90;;;;;;5036153;28;20186;-76
2022/09/15 06:06:24;;;;;;;2.03;0.60;;;15.80;99.90;;;;;;5036008;28;20197;-76
2022/09/15 06:08:54;;;;;;;4.60;1.13;;;15.80;99.90;;;;;;5052288;28;20474;-74
2022/09/15 06:11:28;;;;;;;1.50;0.60;;;15.80;99.90;;;;;;5064086;28;20455;-77
2022/09/15 06:13:54;;;;;;;1.53;0.60;;;15.80;99.90;;;;;;5053256;28;20851;-78
2022/09/15 06:16:22;;;;;;;1.33;0.67;;;15.80;99.90;;;;;;5052851;28;20423;-78
2022/09/15 06:18:50;;;;;;;1.70;0.90;;;15.80;99.90;;;;;;5032927;28;20526;-76
2022/09/15 06:21:21;;;;;;;1.53;0.70;;;15.80;99.90;;;;;;5052255;28;20998;-76
2022/09/15 06:23:52;;;;;;;1.60;0.80;;;15.90;99.90;;;;;;5045803;28;20510;-76
2022/09/15 06:26:18;;;;;;;3.00;0.87;;;15.90;99.90;;;;;;5053805;28;20505;-76
2022/09/15 06:28:48;;;;;;;2.00;0.70;;;15.90;99.90;;;;;;5053512;28;20447;-76
2022/09/15 06:31:14;;;;;;;2.23;0.80;;;15.90;99.90;;;;;;5053638;28;20431;-76
2022/09/15 06:33:42;;;;;;;1.37;0.60;;;15.90;99.90;;;;;;5044448;28;20420;-77
2022/09/15 06:36:10;;;;;;;1.60;0.80;;;16.00;99.90;;;;;;5032060;28;20467;-77
2022/09/15 06:38:37;;;;;;;1.20;0.50;;;16.00;99.90;;;;;;5053340;28;20442;-78
2022/09/15 06:41:03;;;;;;;12.10;1.17;;;16.00;99.90;;;;;;5057099;28;20478;-77
2022/09/15 06:43:30;;;;;;;1.97;0.80;;;16.00;99.90;;;;;;5054674;28;20412;-75
2022/09/15 06:46:03;;;;;;;1.93;0.63;;;16.00;99.90;;;;;;5054104;28;20200;-75
2022/09/15 06:48:31;;;;;;;1.97;0.73;;;16.10;99.90;;;;;;5052861;28;20483;-78
2022/09/15 06:50:57;;;;;;;2.13;1.03;;;16.10;99.90;;;;;;5034663;28;20451;-71
2022/09/15 06:53:22;;;;;;;1.50;0.60;;;16.10;99.90;;;;;;5034663;28;20529;-75
2022/09/15 06:55:49;;;;;;;2.27;1.20;;;16.10;99.90;;;;;;5052856;28;20509;-75
2022/09/15 06:58:15;;;;;;;1.50;0.63;;;16.20;99.90;;;;;;5053240;28;20197;-76
2022/09/15 07:00:41;;;;;;;5.73;0.83;;;16.20;99.90;;;;;;5052999;28;20506;-76
2022/09/15 07:03:06;;;;;;;2.60;1.00;;;16.20;99.90;;;;;;5052287;28;20173;-75
2022/09/15 07:05:32;;;;;;;9.33;0.70;;;16.20;99.90;;;;;;5051933;28;20843;-77
2022/09/15 07:07:57;;;;;;;1.30;0.60;;;16.30;99.90;;;;;;5052543;28;20201;-75
2022/09/15 07:10:23;;;;;;;1.30;0.60;;;16.30;99.90;;;;;;5052352;28;20251;-75
2022/09/15 07:12:49;;;;;;;1.93;0.60;;;16.40;99.90;;;;;;5034552;28;20189;-75
2022/09/15 07:15:14;;;;;;;1.93;0.80;;;16.30;99.90;;;;;;5052710;28;20582;-77
2022/09/15 07:17:40;;;;;;;4.60;0.83;;;16.30;99.90;;;;;;5034797;28;20245;-76
2022/09/15 07:20:06;;;;;;;1.40;0.70;;;16.30;99.90;;;;;;5033621;28;20193;-75
2022/09/15 07:22:32;;;;;;;2.10;0.63;;;16.40;99.90;;;;;;5051333;28;20178;-75
2022/09/15 07:24:57;;;;;;;1.60;0.70;;;16.40;99.90;;;;;;5033723;28;20421;-75
2022/09/15 07:27:25;;;;;;;4.20;1.03;;;16.40;99.90;;;;;;5053627;28;20205;-76
2022/09/15 07:29:51;;;;;;;2.57;0.97;;;16.40;99.90;;;;;;5043278;28;20194;-76
2022/09/15 07:32:17;;;;;;;1.40;0.60;;;16.50;99.90;;;;;;5051278;28;20428;-76
2022/09/15 07:34:42;;;;;;;1.53;0.70;;;16.60;99.90;;;;;;5052249;28;20194;-76
2022/09/15 07:37:08;;;;;;;1.60;0.70;;;16.60;99.90;;;;;;5051522;28;20295;-77
2022/09/15 07:39:33;;;;;;;3.03;1.10;;;16.60;99.90;;;;;;5051815;28;20184;-76
2022/09/15 07:41:59;;;;;;;3.97;0.90;;;16.60;99.90;;;;;;5051569;28;20201;-77
2022/09/15 07:44:24;;;;;;;1.83;0.87;;;16.60;99.90;;;;;;5051790;28;20728;-77
2022/09/15 07:46:50;;;;;;;1.80;0.90;;;16.50;99.90;;;;;;5033014;28;20213;-77
2022/09/15 07:49:16;;;;;;;2.70;1.07;;;16.50;99.90;;;;;;5051692;28;20190;-77
2022/09/15 07:51:41;;;;;;;2.40;0.93;;;16.50;99.90;;;;;;5050822;28;20197;-76
2022/09/15 07:54:07;;;;;;;1.60;0.67;;;16.50;99.90;;;;;;5051510;28;20239;-77
2022/09/15 07:56:33;;;;;;;1.60;0.70;;;16.50;99.90;;;;;;5055713;28;20212;-76
2022/09/15 07:58:58;;;;;;;1.37;0.60;;;16.50;99.90;;;;;;5059476;28;20189;-78
2022/09/15 08:01:24;;;;;;;2.47;1.00;;;16.50;99.90;;;;;;5050527;28;20217;-76
2022/09/15 08:03:51;;;;;;;2.50;0.77;;;16.50;99.90;;;;;;5051305;28;20558;-77
2022/09/15 08:06:20;;;;;;;1.80;0.90;;;16.60;99.90;;;;;;5037931;28;20420;-75
2022/09/15 08:08:46;;;;;;;3.07;1.40;;;16.60;99.90;;;;;;5043888;28;20658;-77
2022/09/15 08:11:16;;;;;;;3.03;1.23;;;16.50;99.90;;;;;;5057948;28;21144;-77
2022/09/15 08:13:42;;;;;;;1.77;1.00;;;16.50;99.90;;;;;;5032588;28;20605;-77
2022/09/15 08:16:10;;;;;;;3.53;1.37;;;16.50;99.90;;;;;;5050906;28;20424;-77
2022/09/15 08:18:37;;;;;;;1.77;0.77;;;16.50;99.90;;;;;;5049962;28;20213;-75
2022/09/15 08:21:08;;;;;;;1.73;0.73;;;16.50;99.90;;;;;;5032568;28;20552;-77
2022/09/15 08:23:35;;;;;;;1.30;0.57;;;16.50;99.90;;;;;;5050779;28;20462;-79
2022/09/15 08:26:04;;;;;;;3.47;1.43;;;16.50;99.90;;;;;;5050740;28;20416;-77
2022/09/15 08:28:29;;;;;;;1.70;0.87;;;16.60;99.90;;;;;;5032990;28;20992;-78
2022/09/15 08:31:00;;;;;;;1.70;0.80;;;16.70;99.90;;;;;;5051285;28;20447;-78
2022/09/15 08:33:26;;;;;;;3.57;0.83;;;16.80;99.90;;;;;;5051284;28;20699;-79
2022/09/15 08:35:53;;;;;;;1.40;0.60;;;17.00;99.90;;;;;;5033222;28;20544;-78
2022/09/15 08:38:19;;;;;;;2.70;1.03;;;17.10;99.90;;;;;;5050478;28;20471;-76
2022/09/15 08:40:46;;;;;;;2.33;1.10;;;17.20;99.90;;;;;;5050509;28;20499;-76
2022/09/15 08:43:19;;;;;;;2.37;1.07;;;17.30;99.90;;;;;;5032376;28;20204;-77
2022/09/15 08:46:02;;;;;;;6.83;0.70;;;17.30;99.90;;;;;;5050721;28;20427;-77
2022/09/15 08:48:53;;;;;;;1.30;0.60;;;17.30;99.90;;;;;;5063911;28;20539;-77
2022/09/15 08:51:29;;;;;;;1.20;0.50;;;17.30;99.90;;;;;;5042660;28;20507;-78
2022/09/15 08:54:22;;;;;;;1.97;0.67;;;17.30;99.90;;;;;;5022629;28;20458;-78
2022/09/15 08:56:48;;;;;;;3.40;0.70;;;17.30;99.90;;;;;;5040910;28;20440;-77
2022/09/15 08:59:16;;;;;;;1.50;0.60;;;17.30;99.90;;;;;;5046514;28;20511;-79
2022/09/15 09:02:10;;;;;;;1.50;0.67;;;17.30;99.90;;;;;;5057261;28;20482;-77
2022/09/15 09:04:51;;;;;;;1.50;0.70;;;17.30;99.90;;;;;;5048104;28;20461;-77
2022/09/15 09:07:23;;;;;;;6.10;1.00;;;17.30;99.90;;;;;;5050763;28;20467;-77
2022/09/15 09:10:09;;;;;;;2.13;0.90;;;17.30;99.90;;;;;;5054418;28;20436;-77
2022/09/15 09:12:59;;;;;;;2.13;0.90;;;17.30;99.90;;;;;;5049115;28;20419;-77
2022/09/15 09:15:39;;;;;;;1.40;0.70;;;17.30;99.90;;;;;;5030986;28;20424;-78
2022/09/15 09:18:08;;;;;;;2.50;0.57;;;17.30;99.90;;;;;;5036488;28;20445;-78
2022/09/15 09:21:03;;;;;;;1.93;0.77;;;17.30;99.90;;;;;;5050133;28;20454;-77
2022/09/15 09:23:41;;;;;;;2.23;0.90;;;17.30;99.90;;;;;;5045266;28;20490;-77
2022/09/15 09:26:10;;;;;;;3.77;0.90;;;17.40;99.90;;;;;;5042009;28;20434;-79
2022/09/15 09:28:48;;;;;;;1.40;0.53;;;17.40;99.90;;;;;;5054340;28;20449;-78
2022/09/15 09:31:18;;;;;;;2.03;0.70;;;17.40;99.90;;;;;;5054118;28;20430;-78
2022/09/15 09:34:01;;;;;;;1.33;0.63;;;17.40;99.90;;;;;;5041130;28;20507;-78
2022/09/15 09:36:26;;;;;;;1.20;0.50;;;17.40;99.90;;;;;;5054014;28;20772;-77
2022/09/15 09:38:54;;;;;;;1.50;0.63;;;17.40;99.90;;;;;;5054238;28;20490;-77
2022/09/15 09:41:34;;;;;;;1.80;0.57;;;17.50;99.90;;;;;;5054001;28;20267;-77
2022/09/15 09:44:01;;;;;;;1.50;0.57;;;17.50;99.90;;;;;;5036387;28;20514;-78
2022/09/15 09:46:28;;;;;;;1.77;0.70;;;17.50;99.90;;;;;;5053880;28;20416;-77
2022/09/15 09:49:01;;;;;;;7.63;1.13;;;17.60;99.90;;;;;;5053875;28;20427;-77
2022/09/15 09:51:51;;;;;;;2.53;0.60;;;17.70;99.90;;;;;;5053694;28;20515;-77
2022/09/15 09:54:19;;;;;;;2.03;1.00;;;17.80;99.90;;;;;;5041537;28;20443;-77
2022/09/15 09:56:47;;;;;;;1.50;0.50;;;17.80;99.90;;;;;;5022937;28;20467;-77
2022/09/15 09:59:33;;;;;;;1.93;0.80;;;17.80;99.90;;;;;;5054336;28;20420;-77
2022/09/15 10:02:14;;;;;;;1.70;0.90;;;17.90;99.90;;;;;;5054003;28;20475;-78
2022/09/15 10:04:48;;;;;;;2.43;1.00;;;17.90;99.90;;;;;;5053817;28;20427;-78
2022/09/15 10:07:17;;;;;;;2.00;0.70;;;17.90;99.90;;;;;;5053867;28;20450;-78
2022/09/15 10:10:22;;;;;;;2.13;0.70;;;18.00;99.90;;;;;;5056476;28;20435;-76
2022/09/15 10:12:49;;;;;;;1.40;0.60;;;18.00;99.90;;;;;;5061047;28;20420;-78
2022/09/15 10:15:26;;;;;;;1.60;0.83;;;18.00;99.90;;;;;;5053128;28;20416;-78
2022/09/15 10:17:54;;;;;;;1.70;0.70;;;18.00;99.90;;;;;;5053288;28;20443;-78
2022/09/15 10:20:46;;;;;;;2.30;1.00;;;17.90;99.90;;;;;;5052072;28;21066;-77
2022/09/15 10:23:20;;;;;;;1.60;0.80;;;17.90;99.90;;;;;;5053307;28;20412;-78
2022/09/15 10:25:46;;;;;;;4.80;1.30;;;18.00;99.90;;;;;;5051928;28;20447;-78
2022/09/15 10:28:20;;;;;;;3.50;1.43;;;18.00;99.90;;;;;;5035626;28;20884;-78
2022/09/15 10:31:09;;;;;;;1.90;0.70;;;18.10;99.90;;;;;;5035441;28;20472;-77
2022/09/15 10:33:46;;;;;;;1.50;0.80;;;18.00;99.90;;;;;;5039883;28;20569;-77
2022/09/15 10:36:15;;;;;;;4.17;1.37;;;17.90;99.90;;;;;;5053186;28;20428;-77
2022/09/15 10:38:44;;;;;;;5.03;1.03;;;17.90;99.90;;;;;;5035434;28;20437;-77
2022/09/15 10:41:30;;;;;;;1.20;0.50;;;17.70;99.90;;;;;;5052854;28;20472;-79
2022/09/15 10:44:23;;;;;;;1.80;0.63;;;17.30;99.90;;;;;;5041618;28;20424;-77
2022/09/15 10:47:06;;;;;;;1.20;0.40;;;16.90;99.90;;;;;;5052910;28;20433;-77
2022/09/15 10:50:04;;;;;;;1.20;0.50;;;16.50;99.90;;;;;;5052941;28;20416;-78
2022/09/15 10:53:10;;;;;;;1.20;0.40;;;16.20;99.90;;;;;;5052738;28;20440;-77
2022/09/15 10:55:48;;;;;;;1.20;0.50;;;16.00;99.90;;;;;;5044238;28;20455;-78
2022/09/15 10:58:59;;;;;;;1.53;0.60;;;15.80;99.90;;;;;;5052915;28;20442;-77
2022/09/15 11:01:28;;;;;;;1.20;0.40;;;15.80;99.90;;;;;;5034098;28;20467;-76
2022/09/15 11:04:12;;;;;;;1.73;0.70;;;15.60;99.90;;;;;;5052654;28;20420;-76
2022/09/15 11:06:53;;;;;;;1.20;0.50;;;15.50;99.90;;;;;;5022959;28;20536;-77
2022/09/15 11:09:29;;;;;;;1.30;0.60;;;15.40;99.90;;;;;;5052647;28;20535;-77
2022/09/15 11:12:12;;;;;;;1.50;0.50;;;15.30;99.90;;;;;;5034268;28;20831;-76
2022/09/15 11:14:56;;;;;;;1.20;0.40;;;15.20;99.90;;;;;;5052308;28;20508;-77
2022/09/15 11:17:55;;;;;;;1.50;0.63;;;15.10;99.90;;;;;;5034533;28;20483;-77
2022/09/15 11:20:34;;;;;;;1.20;0.40;;;15.10;99.90;;;;;;5052495;28;20463;-76
2022/09/15 11:23:16;;;;;;;2.13;0.83;;;15.00;99.90;;;;;;5052052;28;20435;-77
2022/09/15 11:25:53;;;;;;;1.20;0.50;;;14.90;99.90;;;;;;5052258;28;20439;-77
2022/09/15 11:28:26;;;;;;;1.30;0.50;;;14.90;99.90;;;;;;5034235;28;20448;-76
2022/09/15 11:31:02;;;;;;;1.50;0.60;;;14.70;99.90;;;;;;5051387;28;20434;-73
2022/09/15 11:33:41;;;;;;;1.50;0.70;;;14.70;99.90;;;;;;5052285;28;20480;-76
2022/09/15 11:36:10;;;;;;;1.50;0.60;;;14.70;99.90;;;;;;5052265;28;20481;-77
2022/09/15 11:38:41;;;;;;;2.50;0.97;;;14.70;99.90;;;;;;5050945;28;20440;-79
2022/09/15 11:41:16;;;;;;;2.37;0.77;;;14.70;99.90;;;;;;5043456;28;20471;-75
2022/09/15 11:44:05;;;;;;;3.73;1.03;;;14.60;99.90;;;;;;5046288;28;20493;-78
2022/09/15 11:47:26;;;;;;;2.73;0.93;;;14.60;99.90;;;;;;5046295;28;20889;-76
2022/09/15 11:50:06;;;;;;;2.93;1.07;;;14.50;99.90;;;;;;4945371;28;20502;-78
2022/09/15 11:52:53;;;;;;;4.50;1.13;;;14.50;99.90;;;;;;5042882;28;20534;-78
2022/09/15 11:55:39;;;;;;;1.40;0.77;;;14.50;99.90;;;;;;5039503;28;20652;-78
2022/09/15 11:58:08;;;;;;;3.40;1.30;;;14.60;99.90;;;;;;5051660;28;20513;-77
2022/09/15 12:00:39;;;;;;;2.40;1.37;;;14.50;99.90;;;;;;5051563;28;20464;-77
2022/09/15 12:03:22;;;;;;;1.93;0.97;;;14.50;99.90;;;;;;5051057;28;20794;-76
2022/09/15 12:05:53;;;;;;;2.80;1.30;;;14.50;99.90;;;;;;5051336;28;20431;-78
2022/09/15 12:08:42;;;;;;;2.00;1.30;;;14.50;99.90;;;;;;5051545;28;20452;-78
2022/09/15 12:11:17;;;;;;;2.43;0.97;;;14.60;99.90;;;;;;5050681;28;20502;-78
2022/09/15 12:13:44;;;;;;;1.30;0.70;;;14.50;99.90;;;;;;5038715;28;20442;-78
2022/09/15 12:16:11;;;;;;;2.13;1.23;;;14.50;99.90;;;;;;5032924;28;20428;-79
2022/09/15 12:18:39;;;;;;;3.33;1.47;;;14.60;99.90;;;;;;5051311;28;20448;-78
2022/09/15 12:21:22;;;;;;;3.43;1.23;;;14.60;99.90;;;;;;5052016;28;20463;-78
2022/09/15 12:24:12;;;;;;;4.73;1.70;;;14.70;99.90;;;;;;5033344;28;20482;-78
2022/09/15 12:26:39;;;;;;;2.43;1.33;;;14.70;99.90;;;;;;5033852;28;20474;-78
2022/09/15 12:29:26;;;;;;;3.73;1.63;;;14.60;99.90;;;;;;5051316;28;20430;-78
2022/09/15 12:32:25;;;;;;;2.70;1.40;;;14.60;99.90;;;;;;5051233;28;20511;-78
2022/09/15 12:34:53;;;;;;;3.70;1.63;;;14.50;99.90;;;;;;5033529;28;20432;-79
2022/09/15 12:37:19;;;;;;;3.23;1.70;;;14.50;99.90;;;;;;5038520;28;20513;-78
2022/09/15 12:39:46;;;;;;;3.50;1.77;;;14.40;99.90;;;;;;5050838;28;20427;-78
2022/09/15 12:42:30;;;;;;;5.47;1.90;;;14.40;99.90;;;;;;5032589;28;20210;-78
2022/09/15 12:45:22;;;;;;;6.20;2.07;;;14.30;99.90;;;;;;5050925;28;20446;-78
2022/09/15 12:48:00;;;;;;;3.23;1.53;;;14.20;99.90;;;;;;5051341;28;20440;-78
2022/09/15 12:50:35;;;;;;;2.23;1.37;;;14.30;99.90;;;;;;5049492;28;20447;-78
2022/09/15 12:53:11;;;;;;;3.30;1.83;;;14.40;99.90;;;;;;5045526;28;20443;-78
2022/09/15 12:55:48;;;;;;;2.63;1.50;;;14.50;99.90;;;;;;5050714;28;20418;-78
2022/09/15 12:58:17;;;;;;;3.50;1.90;;;14.60;99.90;;;;;;5051303;28;20436;-78
2022/09/15 13:00:44;;;;;;;4.17;1.53;;;14.70;99.90;;;;;;5050481;28;20471;-78
2022/09/15 13:03:48;;;;;;;7.90;2.20;;;14.80;99.90;;;;;;5050597;28;20494;-80
2022/09/15 13:06:19;;;;;;;3.57;1.83;;;15.00;99.90;;;;;;5047830;28;20439;-77
2022/09/15 13:09:02;;;;;;;6.20;2.03;;;15.10;99.90;;;;;;5050811;28;20503;-78
2022/09/15 13:11:35;;;;;;;4.70;1.90;;;15.10;99.90;;;;;;5037389;28;20423;-78